Terminal Aerodrome Forecast
Issued by NWS Brownsville, TX

Home | Current Version | Previous Version | Text Only | Print | Product List | Glossary On
Versions: 1 2 3 4 5 6 7 8 9 10 11 12
000
FTUS44 KBRO 272300
TAFMFE
TAF
KMFE 272320Z 2800/2824 13016G23KT P6SM SKC
     FM280500 14008KT P6SM SKC
     FM281400 15012KT P6SM SCT030=

USA.gov is the U.S. government's official web portal to all federal, state and local government web resources and services.